KAL672 RKPC-RKSS
Flight info
| Callsign | KAL672 |
|---|---|
| Flight time | N/A |
| Altitude | 25000 |
| Route | RKPC/07 KAMIT OLMEN RKSS/32R |
| Aircraft | B789/H-SDE3/L |
Departure
| Time | 2025-09-08 12:47 |
|---|---|
| Airport | Jeju International Airport (RKPC) |
Arrival
| Time | N/A |
|---|---|
| Airport | Gimpo International Airport (RKSS) |
| Time | Latitude | Longitude | Altitude | Speed | Heading |
|---|---|---|---|---|---|
| 2025-09-08 11:55 | 33.50786 | 126.49234 | 98 ft | 0 kts | 169° |
| 2025-09-08 12:35 | 33.50824 | 126.49227 | 97 ft | 3 kts | 179° |
| 2025-09-08 12:35 | 33.50841 | 126.49229 | 97 ft | 3 kts | 198° |
| 2025-09-08 12:36 | 33.50861 | 126.49242 | 96 ft | 2 kts | 226° |
| 2025-09-08 12:36 | 33.50856 | 126.49236 | 96 ft | 0 kts | 226° |
| 2025-09-08 12:37 | 33.50840 | 126.49212 | 97 ft | 4 kts | 234° |
| 2025-09-08 12:38 | 33.50780 | 126.49110 | 99 ft | 10 kts | 243° |
| 2025-09-08 12:38 | 33.50741 | 126.49025 | 100 ft | 13 kts | 239° |
| 2025-09-08 12:39 | 33.50610 | 126.48784 | 98 ft | 18 kts | 238° |
| 2025-09-08 12:39 | 33.50577 | 126.48547 | 97 ft | 12 kts | 326° |
| 2025-09-08 12:40 | 33.50621 | 126.48482 | 96 ft | 8 kts | 278° |
| 2025-09-08 12:40 | 33.50521 | 126.48263 | 99 ft | 17 kts | 235° |
| 2025-09-08 12:41 | 33.50453 | 126.48125 | 100 ft | 22 kts | 239° |
| 2025-09-08 12:41 | 33.50259 | 126.47761 | 100 ft | 30 kts | 237° |
| 2025-09-08 12:42 | 33.50027 | 126.47302 | 103 ft | 34 kts | 238° |
| 2025-09-08 12:42 | 33.49899 | 126.46937 | 102 ft | 7 kts | 309° |
| 2025-09-08 12:43 | 33.49903 | 126.46933 | 103 ft | 0 kts | 320° |
| 2025-09-08 12:46 | 33.49910 | 126.46927 | 103 ft | 6 kts | 324° |
| 2025-09-08 12:46 | 33.50084 | 126.47029 | 100 ft | 45 kts | 58° |
| 2025-09-08 12:47 | 33.51802 | 126.49896 | 1597 ft | 187 kts | 35° |
| 2025-09-08 12:47 | 33.53141 | 126.50212 | 1993 ft | 208 kts | 356° |
| 2025-09-08 12:48 | 33.56045 | 126.49835 | 3169 ft | 216 kts | 351° |
| 2025-09-08 12:48 | 33.59057 | 126.49494 | 4520 ft | 217 kts | 352° |
| 2025-09-08 12:49 | 33.62119 | 126.49198 | 5857 ft | 223 kts | 352° |
| 2025-09-08 12:49 | 33.63672 | 126.49065 | 6790 ft | 225 kts | 352° |
| 2025-09-08 12:50 | 33.68470 | 126.48821 | 9551 ft | 232 kts | 355° |
| 2025-09-08 12:50 | 33.71795 | 126.48830 | 11356 ft | 242 kts | 354° |
| 2025-09-08 12:51 | 33.75173 | 126.48477 | 13380 ft | 245 kts | 343° |